sensor_id;sensor_type;location;lat;lon;timestamp;P1;durP1;ratioP1;P2;durP2;ratioP2
635;SDS011;302;50.206;8.196;2023-12-28T00:00:23;3.70;;;3.10;;
635;SDS011;302;50.206;8.196;2023-12-28T00:02:48;3.00;;;2.73;;
635;SDS011;302;50.206;8.196;2023-12-28T00:05:13;4.17;;;2.97;;
635;SDS011;302;50.206;8.196;2023-12-28T00:07:38;3.00;;;2.70;;
635;SDS011;302;50.206;8.196;2023-12-28T00:10:03;2.90;;;2.60;;
635;SDS011;302;50.206;8.196;2023-12-28T00:12:29;4.10;;;3.20;;
635;SDS011;302;50.206;8.196;2023-12-28T00:14:54;6.73;;;3.10;;
635;SDS011;302;50.206;8.196;2023-12-28T00:17:19;3.40;;;3.10;;
635;SDS011;302;50.206;8.196;2023-12-28T00:19:44;4.73;;;2.90;;
635;SDS011;302;50.206;8.196;2023-12-28T00:22:09;3.70;;;3.30;;
635;SDS011;302;50.206;8.196;2023-12-28T00:24:34;3.25;;;2.58;;
635;SDS011;302;50.206;8.196;2023-12-28T00:26:59;4.15;;;3.40;;
635;SDS011;302;50.206;8.196;2023-12-28T00:29:25;4.25;;;2.80;;
635;SDS011;302;50.206;8.196;2023-12-28T00:31:50;4.80;;;3.27;;
635;SDS011;302;50.206;8.196;2023-12-28T00:34:15;3.67;;;3.30;;
635;SDS011;302;50.206;8.196;2023-12-28T00:36:40;3.40;;;3.10;;
635;SDS011;302;50.206;8.196;2023-12-28T00:39:05;2.63;;;2.43;;
635;SDS011;302;50.206;8.196;2023-12-28T00:41:30;3.77;;;3.47;;
635;SDS011;302;50.206;8.196;2023-12-28T00:43:56;5.20;;;3.40;;
635;SDS011;302;50.206;8.196;2023-12-28T00:46:21;4.23;;;3.60;;
635;SDS011;302;50.206;8.196;2023-12-28T00:48:46;4.00;;;3.70;;
635;SDS011;302;50.206;8.196;2023-12-28T00:51:11;3.70;;;3.33;;
635;SDS011;302;50.206;8.196;2023-12-28T00:53:36;4.40;;;3.97;;
635;SDS011;302;50.206;8.196;2023-12-28T00:56:01;4.22;;;3.83;;
635;SDS011;302;50.206;8.196;2023-12-28T00:58:27;5.50;;;4.03;;
635;SDS011;302;50.206;8.196;2023-12-28T01:00:52;4.37;;;3.60;;
635;SDS011;302;50.206;8.196;2023-12-28T01:03:20;4.50;;;3.65;;
635;SDS011;302;50.206;8.196;2023-12-28T01:05:45;4.30;;;3.77;;
635;SDS011;302;50.206;8.196;2023-12-28T01:08:15;4.68;;;4.22;;
635;SDS011;302;50.206;8.196;2023-12-28T01:10:40;3.67;;;3.38;;
635;SDS011;302;50.206;8.196;2023-12-28T01:13:05;4.00;;;3.70;;
635;SDS011;302;50.206;8.196;2023-12-28T01:15:30;5.60;;;4.37;;
635;SDS011;302;50.206;8.196;2023-12-28T01:17:56;5.13;;;3.97;;
635;SDS011;302;50.206;8.196;2023-12-28T01:20:21;5.03;;;4.53;;
635;SDS011;302;50.206;8.196;2023-12-28T01:22:46;4.50;;;4.10;;
635;SDS011;302;50.206;8.196;2023-12-28T01:25:11;5.17;;;4.00;;
635;SDS011;302;50.206;8.196;2023-12-28T01:27:36;4.85;;;4.22;;
635;SDS011;302;50.206;8.196;2023-12-28T01:30:02;4.85;;;4.28;;
635;SDS011;302;50.206;8.196;2023-12-28T01:32:27;5.00;;;4.50;;
635;SDS011;302;50.206;8.196;2023-12-28T01:34:52;6.03;;;4.57;;
635;SDS011;302;50.206;8.196;2023-12-28T01:37:17;4.37;;;3.97;;
635;SDS011;302;50.206;8.196;2023-12-28T01:39:42;4.72;;;4.30;;
635;SDS011;302;50.206;8.196;2023-12-28T01:42:08;4.28;;;3.78;;
635;SDS011;302;50.206;8.196;2023-12-28T01:44:33;5.33;;;4.07;;
635;SDS011;302;50.206;8.196;2023-12-28T01:46:58;4.82;;;4.35;;
635;SDS011;302;50.206;8.196;2023-12-28T01:49:23;4.90;;;4.50;;
635;SDS011;302;50.206;8.196;2023-12-28T01:51:49;4.70;;;4.20;;
635;SDS011;302;50.206;8.196;2023-12-28T01:54:14;5.10;;;4.70;;
635;SDS011;302;50.206;8.196;2023-12-28T01:56:39;4.40;;;4.00;;
635;SDS011;302;50.206;8.196;2023-12-28T01:59:05;6.77;;;4.90;;
635;SDS011;302;50.206;8.196;2023-12-28T02:01:30;5.20;;;4.67;;
635;SDS011;302;50.206;8.196;2023-12-28T02:03:55;5.73;;;5.23;;
635;SDS011;302;50.206;8.196;2023-12-28T02:06:21;4.60;;;4.20;;
635;SDS011;302;50.206;8.196;2023-12-28T02:08:47;5.00;;;4.07;;
635;SDS011;302;50.206;8.196;2023-12-28T02:11:13;4.47;;;4.07;;
635;SDS011;302;50.206;8.196;2023-12-28T02:13:38;5.50;;;4.65;;
635;SDS011;302;50.206;8.196;2023-12-28T02:16:06;4.20;;;3.80;;
635;SDS011;302;50.206;8.196;2023-12-28T02:18:34;4.13;;;3.70;;
635;SDS011;302;50.206;8.196;2023-12-28T02:21:04;4.78;;;3.92;;
635;SDS011;302;50.206;8.196;2023-12-28T02:23:32;3.65;;;3.35;;
635;SDS011;302;50.206;8.196;2023-12-28T02:25:57;6.65;;;4.07;;
635;SDS011;302;50.206;8.196;2023-12-28T02:28:22;3.97;;;3.55;;
635;SDS011;302;50.206;8.196;2023-12-28T02:30:47;3.78;;;3.47;;
635;SDS011;302;50.206;8.196;2023-12-28T02:33:15;3.40;;;3.10;;
635;SDS011;302;50.206;8.196;2023-12-28T02:35:51;5.20;;;3.47;;
635;SDS011;302;50.206;8.196;2023-12-28T02:38:17;3.05;;;2.75;;
635;SDS011;302;50.206;8.196;2023-12-28T02:40:43;3.93;;;2.63;;
635;SDS011;302;50.206;8.196;2023-12-28T02:43:11;3.22;;;2.92;;
635;SDS011;302;50.206;8.196;2023-12-28T02:45:37;3.20;;;2.93;;
635;SDS011;302;50.206;8.196;2023-12-28T02:48:02;2.73;;;2.43;;
635;SDS011;302;50.206;8.196;2023-12-28T02:50:28;3.37;;;2.50;;
635;SDS011;302;50.206;8.196;2023-12-28T02:52:55;3.28;;;2.97;;
635;SDS011;302;50.206;8.196;2023-12-28T02:55:20;3.20;;;2.90;;
635;SDS011;302;50.206;8.196;2023-12-28T02:57:45;2.70;;;2.50;;
635;SDS011;302;50.206;8.196;2023-12-28T03:00:10;2.65;;;2.45;;
635;SDS011;302;50.206;8.196;2023-12-28T03:02:38;1.67;;;1.57;;
635;SDS011;302;50.206;8.196;2023-12-28T03:05:04;2.40;;;2.20;;
635;SDS011;302;50.206;8.196;2023-12-28T03:07:30;2.95;;;2.10;;
635;SDS011;302;50.206;8.196;2023-12-28T03:09:55;2.90;;;2.60;;
635;SDS011;302;50.206;8.196;2023-12-28T03:12:20;2.75;;;2.55;;
635;SDS011;302;50.206;8.196;2023-12-28T03:14:46;3.50;;;3.00;;
635;SDS011;302;50.206;8.196;2023-12-28T03:17:11;3.70;;;3.38;;
635;SDS011;302;50.206;8.196;2023-12-28T03:19:37;3.40;;;3.10;;
635;SDS011;302;50.206;8.196;2023-12-28T03:22:02;4.93;;;3.40;;
635;SDS011;302;50.206;8.196;2023-12-28T03:24:27;2.90;;;2.60;;
635;SDS011;302;50.206;8.196;2023-12-28T03:26:52;3.22;;;2.92;;
635;SDS011;302;50.206;8.196;2023-12-28T03:29:17;2.90;;;2.60;;
635;SDS011;302;50.206;8.196;2023-12-28T03:31:42;2.20;;;2.00;;
635;SDS011;302;50.206;8.196;2023-12-28T03:34:08;3.20;;;2.20;;
635;SDS011;302;50.206;8.196;2023-12-28T03:36:33;2.28;;;2.00;;
635;SDS011;302;50.206;8.196;2023-12-28T03:38:58;2.37;;;2.17;;
635;SDS011;302;50.206;8.196;2023-12-28T03:41:23;2.85;;;2.05;;
635;SDS011;302;50.206;8.196;2023-12-28T03:43:48;2.50;;;2.30;;
635;SDS011;302;50.206;8.196;2023-12-28T03:46:13;2.97;;;2.70;;
635;SDS011;302;50.206;8.196;2023-12-28T03:48:39;2.57;;;2.37;;
635;SDS011;302;50.206;8.196;2023-12-28T03:51:04;4.53;;;2.70;;
635;SDS011;302;50.206;8.196;2023-12-28T03:53:29;3.63;;;2.50;;
635;SDS011;302;50.206;8.196;2023-12-28T03:55:56;3.22;;;2.92;;
635;SDS011;302;50.206;8.196;2023-12-28T03:58:21;3.20;;;2.90;;
635;SDS011;302;50.206;8.196;2023-12-28T04:00:46;3.00;;;2.70;;
635;SDS011;302;50.206;8.196;2023-12-28T04:03:12;2.77;;;2.57;;
635;SDS011;302;50.206;8.196;2023-12-28T04:05:37;2.47;;;2.28;;
635;SDS011;302;50.206;8.196;2023-12-28T04:08:02;3.13;;;2.47;;
635;SDS011;302;50.206;8.196;2023-12-28T04:10:31;2.70;;;2.50;;
635;SDS011;302;50.206;8.196;2023-12-28T04:12:57;3.22;;;2.83;;
635;SDS011;302;50.206;8.196;2023-12-28T04:15:23;4.50;;;4.17;;
635;SDS011;302;50.206;8.196;2023-12-28T04:17:48;3.77;;;3.47;;
635;SDS011;302;50.206;8.196;2023-12-28T04:20:13;3.40;;;3.10;;
635;SDS011;302;50.206;8.196;2023-12-28T04:22:38;4.20;;;3.80;;
635;SDS011;302;50.206;8.196;2023-12-28T04:25:03;3.40;;;3.10;;
635;SDS011;302;50.206;8.196;2023-12-28T04:27:29;3.50;;;3.20;;
635;SDS011;302;50.206;8.196;2023-12-28T04:29:54;3.50;;;3.20;;
635;SDS011;302;50.206;8.196;2023-12-28T04:32:19;2.90;;;2.70;;
635;SDS011;302;50.206;8.196;2023-12-28T04:34:44;3.67;;;3.30;;
635;SDS011;302;50.206;8.196;2023-12-28T04:37:09;3.30;;;3.00;;
635;SDS011;302;50.206;8.196;2023-12-28T04:39:35;3.30;;;3.00;;
635;SDS011;302;50.206;8.196;2023-12-28T04:42:00;3.63;;;3.33;;
635;SDS011;302;50.206;8.196;2023-12-28T04:44:25;3.58;;;3.28;;
635;SDS011;302;50.206;8.196;2023-12-28T04:46:51;3.47;;;3.20;;
635;SDS011;302;50.206;8.196;2023-12-28T04:49:16;3.80;;;3.47;;
635;SDS011;302;50.206;8.196;2023-12-28T04:51:42;3.77;;;3.37;;
635;SDS011;302;50.206;8.196;2023-12-28T04:54:07;3.63;;;3.30;;
635;SDS011;302;50.206;8.196;2023-12-28T04:56:32;3.20;;;2.90;;
635;SDS011;302;50.206;8.196;2023-12-28T04:58:57;3.67;;;3.38;;
635;SDS011;302;50.206;8.196;2023-12-28T05:01:22;4.32;;;3.80;;
635;SDS011;302;50.206;8.196;2023-12-28T05:03:47;3.90;;;3.60;;
635;SDS011;302;50.206;8.196;2023-12-28T05:06:13;3.67;;;3.38;;
635;SDS011;302;50.206;8.196;2023-12-28T05:08:38;4.73;;;4.40;;
635;SDS011;302;50.206;8.196;2023-12-28T05:11:03;4.95;;;3.97;;
635;SDS011;302;50.206;8.196;2023-12-28T05:13:30;4.70;;;4.32;;
635;SDS011;302;50.206;8.196;2023-12-28T05:15:55;5.65;;;5.00;;
635;SDS011;302;50.206;8.196;2023-12-28T05:18:20;5.72;;;4.32;;
635;SDS011;302;50.206;8.196;2023-12-28T05:20:45;3.97;;;3.65;;
635;SDS011;302;50.206;8.196;2023-12-28T05:23:10;4.72;;;4.28;;
635;SDS011;302;50.206;8.196;2023-12-28T05:25:35;5.50;;;4.97;;
635;SDS011;302;50.206;8.196;2023-12-28T05:28:01;4.90;;;4.40;;
635;SDS011;302;50.206;8.196;2023-12-28T05:30:26;5.40;;;4.90;;
635;SDS011;302;50.206;8.196;2023-12-28T05:32:51;4.97;;;4.55;;
635;SDS011;302;50.206;8.196;2023-12-28T05:35:16;6.03;;;4.60;;
635;SDS011;302;50.206;8.196;2023-12-28T05:37:41;5.03;;;4.63;;
635;SDS011;302;50.206;8.196;2023-12-28T05:40:07;5.75;;;4.90;;
635;SDS011;302;50.206;8.196;2023-12-28T05:42:34;5.25;;;4.78;;
635;SDS011;302;50.206;8.196;2023-12-28T05:44:59;7.00;;;5.53;;
635;SDS011;302;50.206;8.196;2023-12-28T05:47:25;6.00;;;5.40;;
635;SDS011;302;50.206;8.196;2023-12-28T05:49:50;4.70;;;4.30;;
635;SDS011;302;50.206;8.196;2023-12-28T05:52:16;6.32;;;5.18;;
635;SDS011;302;50.206;8.196;2023-12-28T05:54:43;6.07;;;5.43;;
635;SDS011;302;50.206;8.196;2023-12-28T05:57:08;6.87;;;5.00;;
635;SDS011;302;50.206;8.196;2023-12-28T05:59:36;5.35;;;4.85;;
635;SDS011;302;50.206;8.196;2023-12-28T06:02:02;5.45;;;4.95;;
635;SDS011;302;50.206;8.196;2023-12-28T06:04:28;7.85;;;6.78;;
635;SDS011;302;50.206;8.196;2023-12-28T06:06:53;8.00;;;6.90;;
635;SDS011;302;50.206;8.196;2023-12-28T06:09:18;7.13;;;6.53;;
635;SDS011;302;50.206;8.196;2023-12-28T06:11:43;7.22;;;6.55;;
635;SDS011;302;50.206;8.196;2023-12-28T06:14:08;8.43;;;7.65;;
635;SDS011;302;50.206;8.196;2023-12-28T06:16:34;7.87;;;7.17;;
635;SDS011;302;50.206;8.196;2023-12-28T06:18:59;7.27;;;6.67;;
635;SDS011;302;50.206;8.196;2023-12-28T06:21:25;7.77;;;6.60;;
635;SDS011;302;50.206;8.196;2023-12-28T06:23:50;8.23;;;7.17;;
635;SDS011;302;50.206;8.196;2023-12-28T06:26:15;7.10;;;6.43;;
635;SDS011;302;50.206;8.196;2023-12-28T06:28:40;7.63;;;6.93;;
635;SDS011;302;50.206;8.196;2023-12-28T06:31:05;6.90;;;6.30;;
635;SDS011;302;50.206;8.196;2023-12-28T06:33:30;7.20;;;6.65;;
635;SDS011;302;50.206;8.196;2023-12-28T06:35:56;8.95;;;6.53;;
635;SDS011;302;50.206;8.196;2023-12-28T06:38:23;6.25;;;5.65;;
635;SDS011;302;50.206;8.196;2023-12-28T06:40:48;5.50;;;5.10;;
635;SDS011;302;50.206;8.196;2023-12-28T06:43:13;7.07;;;6.47;;
635;SDS011;302;50.206;8.196;2023-12-28T06:45:38;6.60;;;6.10;;
635;SDS011;302;50.206;8.196;2023-12-28T06:48:04;5.73;;;5.23;;
635;SDS011;302;50.206;8.196;2023-12-28T06:50:29;6.33;;;5.77;;
635;SDS011;302;50.206;8.196;2023-12-28T06:52:54;6.30;;;5.70;;
635;SDS011;302;50.206;8.196;2023-12-28T06:55:20;6.33;;;5.73;;
635;SDS011;302;50.206;8.196;2023-12-28T06:57:45;6.27;;;5.67;;
635;SDS011;302;50.206;8.196;2023-12-28T07:00:10;6.23;;;5.40;;
635;SDS011;302;50.206;8.196;2023-12-28T07:02:35;5.80;;;5.20;;
635;SDS011;302;50.206;8.196;2023-12-28T07:05:01;5.50;;;5.00;;
635;SDS011;302;50.206;8.196;2023-12-28T07:07:26;5.37;;;4.87;;
635;SDS011;302;50.206;8.196;2023-12-28T07:09:51;5.00;;;4.60;;
635;SDS011;302;50.206;8.196;2023-12-28T07:12:16;4.97;;;4.57;;
635;SDS011;302;50.206;8.196;2023-12-28T07:14:41;5.27;;;4.87;;
635;SDS011;302;50.206;8.196;2023-12-28T07:17:07;5.13;;;4.72;;
635;SDS011;302;50.206;8.196;2023-12-28T07:19:32;5.97;;;5.50;;
635;SDS011;302;50.206;8.196;2023-12-28T07:21:57;4.38;;;4.05;;
635;SDS011;302;50.206;8.196;2023-12-28T07:24:22;6.27;;;4.53;;
635;SDS011;302;50.206;8.196;2023-12-28T07:26:48;6.32;;;4.25;;
635;SDS011;302;50.206;8.196;2023-12-28T07:29:13;4.43;;;4.03;;
635;SDS011;302;50.206;8.196;2023-12-28T07:31:38;5.55;;;4.28;;
635;SDS011;302;50.206;8.196;2023-12-28T07:34:03;4.28;;;3.88;;
635;SDS011;302;50.206;8.196;2023-12-28T07:36:28;4.33;;;3.70;;
635;SDS011;302;50.206;8.196;2023-12-28T07:38:53;4.00;;;3.40;;
635;SDS011;302;50.206;8.196;2023-12-28T07:41:18;3.95;;;3.63;;
635;SDS011;302;50.206;8.196;2023-12-28T07:43:44;4.03;;;3.28;;
635;SDS011;302;50.206;8.196;2023-12-28T07:46:09;3.73;;;3.43;;
635;SDS011;302;50.206;8.196;2023-12-28T07:48:34;4.15;;;3.47;;
635;SDS011;302;50.206;8.196;2023-12-28T07:51:06;6.07;;;5.47;;
635;SDS011;302;50.206;8.196;2023-12-28T07:53:31;8.32;;;4.13;;
635;SDS011;302;50.206;8.196;2023-12-28T07:55:56;7.07;;;4.57;;
635;SDS011;302;50.206;8.196;2023-12-28T07:58:21;4.30;;;3.60;;
635;SDS011;302;50.206;8.196;2023-12-28T08:00:46;4.33;;;3.27;;
635;SDS011;302;50.206;8.196;2023-12-28T08:03:12;3.77;;;3.47;;
635;SDS011;302;50.206;8.196;2023-12-28T08:05:40;4.10;;;3.80;;
635;SDS011;302;50.206;8.196;2023-12-28T08:08:05;4.00;;;3.57;;
635;SDS011;302;50.206;8.196;2023-12-28T08:10:30;4.43;;;4.13;;
635;SDS011;302;50.206;8.196;2023-12-28T08:12:56;5.63;;;5.13;;
635;SDS011;302;50.206;8.196;2023-12-28T08:15:21;3.97;;;3.60;;
635;SDS011;302;50.206;8.196;2023-12-28T08:17:46;3.37;;;3.07;;
635;SDS011;302;50.206;8.196;2023-12-28T08:20:11;5.03;;;4.18;;
635;SDS011;302;50.206;8.196;2023-12-28T08:22:36;8.23;;;3.00;;
635;SDS011;302;50.206;8.196;2023-12-28T08:25:01;3.15;;;2.95;;
635;SDS011;302;50.206;8.196;2023-12-28T08:27:27;5.33;;;3.60;;
635;SDS011;302;50.206;8.196;2023-12-28T08:29:52;4.73;;;3.47;;
635;SDS011;302;50.206;8.196;2023-12-28T08:32:17;2.97;;;2.75;;
635;SDS011;302;50.206;8.196;2023-12-28T08:34:42;2.58;;;2.38;;
635;SDS011;302;50.206;8.196;2023-12-28T08:37:07;4.67;;;2.80;;
635;SDS011;302;50.206;8.196;2023-12-28T08:39:33;3.13;;;2.60;;
635;SDS011;302;50.206;8.196;2023-12-28T08:41:58;2.67;;;2.47;;
635;SDS011;302;50.206;8.196;2023-12-28T08:44:23;2.87;;;2.30;;
635;SDS011;302;50.206;8.196;2023-12-28T08:46:48;2.80;;;2.30;;
635;SDS011;302;50.206;8.196;2023-12-28T08:49:13;4.23;;;2.60;;
635;SDS011;302;50.206;8.196;2023-12-28T08:51:40;3.08;;;2.35;;
635;SDS011;302;50.206;8.196;2023-12-28T08:54:05;2.83;;;2.30;;
635;SDS011;302;50.206;8.196;2023-12-28T08:56:30;3.00;;;2.77;;
635;SDS011;302;50.206;8.196;2023-12-28T08:58:56;4.60;;;3.20;;
635;SDS011;302;50.206;8.196;2023-12-28T09:01:22;4.28;;;2.88;;
635;SDS011;302;50.206;8.196;2023-12-28T09:03:51;3.60;;;2.70;;
635;SDS011;302;50.206;8.196;2023-12-28T09:06:16;4.65;;;2.85;;
635;SDS011;302;50.206;8.196;2023-12-28T09:08:45;3.87;;;2.67;;
635;SDS011;302;50.206;8.196;2023-12-28T09:11:12;3.20;;;2.78;;
635;SDS011;302;50.206;8.196;2023-12-28T09:13:38;3.43;;;2.70;;
635;SDS011;302;50.206;8.196;2023-12-28T09:16:03;3.03;;;2.53;;
635;SDS011;302;50.206;8.196;2023-12-28T09:18:28;2.80;;;2.33;;
635;SDS011;302;50.206;8.196;2023-12-28T09:20:54;2.38;;;2.17;;
635;SDS011;302;50.206;8.196;2023-12-28T09:23:20;3.67;;;2.92;;
635;SDS011;302;50.206;8.196;2023-12-28T09:25:45;4.55;;;2.35;;
635;SDS011;302;50.206;8.196;2023-12-28T09:28:10;5.33;;;1.90;;
635;SDS011;302;50.206;8.196;2023-12-28T09:30:35;2.42;;;2.22;;
635;SDS011;302;50.206;8.196;2023-12-28T09:33:00;5.20;;;2.73;;
635;SDS011;302;50.206;8.196;2023-12-28T09:35:26;4.47;;;3.37;;
635;SDS011;302;50.206;8.196;2023-12-28T09:37:51;2.75;;;2.20;;
635;SDS011;302;50.206;8.196;2023-12-28T09:40:16;2.95;;;2.00;;
635;SDS011;302;50.206;8.196;2023-12-28T09:42:57;9.60;;;8.60;;
635;SDS011;302;50.206;8.196;2023-12-28T09:45:26;1.80;;;1.70;;
635;SDS011;302;50.206;8.196;2023-12-28T09:47:51;3.83;;;2.43;;
635;SDS011;302;50.206;8.196;2023-12-28T09:50:17;2.80;;;2.10;;
635;SDS011;302;50.206;8.196;2023-12-28T09:52:42;2.37;;;2.17;;
635;SDS011;302;50.206;8.196;2023-12-28T09:55:08;5.73;;;2.00;;
635;SDS011;302;50.206;8.196;2023-12-28T09:57:33;1.90;;;1.80;;
635;SDS011;302;50.206;8.196;2023-12-28T09:59:58;2.27;;;2.03;;
635;SDS011;302;50.206;8.196;2023-12-28T10:02:24;2.13;;;1.70;;
635;SDS011;302;50.206;8.196;2023-12-28T10:04:49;1.60;;;1.43;;
635;SDS011;302;50.206;8.196;2023-12-28T10:07:15;3.13;;;1.90;;
635;SDS011;302;50.206;8.196;2023-12-28T10:09:40;3.35;;;1.58;;
635;SDS011;302;50.206;8.196;2023-12-28T10:12:05;3.43;;;1.70;;
635;SDS011;302;50.206;8.196;2023-12-28T10:14:31;2.55;;;2.05;;
635;SDS011;302;50.206;8.196;2023-12-28T10:16:56;1.93;;;1.60;;
635;SDS011;302;50.206;8.196;2023-12-28T10:19:22;2.60;;;1.80;;
635;SDS011;302;50.206;8.196;2023-12-28T10:21:47;1.20;;;1.10;;
635;SDS011;302;50.206;8.196;2023-12-28T10:24:13;2.73;;;1.90;;
635;SDS011;302;50.206;8.196;2023-12-28T10:26:38;4.50;;;2.20;;
635;SDS011;302;50.206;8.196;2023-12-28T10:29:03;2.90;;;2.30;;
635;SDS011;302;50.206;8.196;2023-12-28T10:31:29;3.63;;;1.83;;
635;SDS011;302;50.206;8.196;2023-12-28T10:33:57;2.73;;;2.10;;
635;SDS011;302;50.206;8.196;2023-12-28T10:36:22;6.07;;;2.33;;
635;SDS011;302;50.206;8.196;2023-12-28T10:38:49;2.58;;;1.85;;
635;SDS011;302;50.206;8.196;2023-12-28T10:41:16;2.47;;;1.50;;
635;SDS011;302;50.206;8.196;2023-12-28T10:46:39;1.42;;;1.27;;
635;SDS011;302;50.206;8.196;2023-12-28T10:49:09;3.03;;;2.00;;
635;SDS011;302;50.206;8.196;2023-12-28T10:51:35;2.10;;;1.45;;
635;SDS011;302;50.206;8.196;2023-12-28T10:54:23;2.10;;;1.50;;
635;SDS011;302;50.206;8.196;2023-12-28T10:56:56;2.70;;;2.50;;
635;SDS011;302;50.206;8.196;2023-12-28T10:59:25;2.45;;;1.92;;
635;SDS011;302;50.206;8.196;2023-12-28T11:01:54;3.33;;;2.97;;
635;SDS011;302;50.206;8.196;2023-12-28T11:06:45;5.13;;;1.80;;
635;SDS011;302;50.206;8.196;2023-12-28T11:09:11;1.95;;;1.75;;
635;SDS011;302;50.206;8.196;2023-12-28T11:11:36;2.43;;;2.17;;
635;SDS011;302;50.206;8.196;2023-12-28T11:14:02;3.08;;;2.67;;
635;SDS011;302;50.206;8.196;2023-12-28T11:16:28;3.10;;;2.13;;
635;SDS011;302;50.206;8.196;2023-12-28T11:18:53;2.90;;;1.60;;
635;SDS011;302;50.206;8.196;2023-12-28T11:21:19;2.10;;;1.90;;
635;SDS011;302;50.206;8.196;2023-12-28T11:23:45;3.70;;;2.80;;
635;SDS011;302;50.206;8.196;2023-12-28T11:26:18;2.50;;;1.88;;
635;SDS011;302;50.206;8.196;2023-12-28T11:28:43;2.67;;;2.00;;
635;SDS011;302;50.206;8.196;2023-12-28T11:31:14;2.37;;;1.40;;
635;SDS011;302;50.206;8.196;2023-12-28T11:33:47;4.10;;;2.35;;
635;SDS011;302;50.206;8.196;2023-12-28T11:36:22;3.97;;;1.90;;
635;SDS011;302;50.206;8.196;2023-12-28T11:38:50;2.92;;;1.85;;
635;SDS011;302;50.206;8.196;2023-12-28T11:41:19;1.85;;;1.60;;
635;SDS011;302;50.206;8.196;2023-12-28T11:43:51;2.70;;;1.67;;
635;SDS011;302;50.206;8.196;2023-12-28T11:46:16;4.00;;;1.90;;
635;SDS011;302;50.206;8.196;2023-12-28T11:48:42;3.33;;;2.00;;
635;SDS011;302;50.206;8.196;2023-12-28T11:51:07;2.67;;;1.30;;
635;SDS011;302;50.206;8.196;2023-12-28T11:53:33;2.20;;;1.75;;
635;SDS011;302;50.206;8.196;2023-12-28T11:56:01;2.67;;;1.70;;
635;SDS011;302;50.206;8.196;2023-12-28T11:58:31;2.92;;;2.05;;
635;SDS011;302;50.206;8.196;2023-12-28T12:00:58;1.63;;;1.45;;
635;SDS011;302;50.206;8.196;2023-12-28T12:03:24;2.43;;;1.60;;
635;SDS011;302;50.206;8.196;2023-12-28T12:05:49;2.60;;;1.50;;
635;SDS011;302;50.206;8.196;2023-12-28T12:08:14;3.43;;;1.60;;
635;SDS011;302;50.206;8.196;2023-12-28T12:10:40;2.60;;;1.47;;
635;SDS011;302;50.206;8.196;2023-12-28T12:13:06;1.73;;;1.20;;
635;SDS011;302;50.206;8.196;2023-12-28T12:15:31;3.83;;;2.00;;
635;SDS011;302;50.206;8.196;2023-12-28T12:17:56;4.47;;;2.10;;
635;SDS011;302;50.206;8.196;2023-12-28T12:20:22;1.77;;;1.50;;
635;SDS011;302;50.206;8.196;2023-12-28T12:22:48;5.82;;;1.40;;
635;SDS011;302;50.206;8.196;2023-12-28T12:25:14;2.35;;;1.45;;
635;SDS011;302;50.206;8.196;2023-12-28T12:27:40;2.25;;;1.27;;
635;SDS011;302;50.206;8.196;2023-12-28T12:30:06;3.33;;;1.30;;
635;SDS011;302;50.206;8.196;2023-12-28T12:32:31;2.40;;;1.47;;
635;SDS011;302;50.206;8.196;2023-12-28T12:34:56;3.80;;;1.63;;
635;SDS011;302;50.206;8.196;2023-12-28T12:37:22;3.20;;;1.20;;
635;SDS011;302;50.206;8.196;2023-12-28T12:39:48;2.10;;;1.23;;
635;SDS011;302;50.206;8.196;2023-12-28T12:42:13;2.57;;;1.30;;
635;SDS011;302;50.206;8.196;2023-12-28T12:44:39;4.20;;;1.50;;
635;SDS011;302;50.206;8.196;2023-12-28T12:47:05;2.93;;;1.37;;
635;SDS011;302;50.206;8.196;2023-12-28T12:49:30;2.35;;;1.75;;
635;SDS011;302;50.206;8.196;2023-12-28T12:51:56;2.20;;;1.77;;
635;SDS011;302;50.206;8.196;2023-12-28T12:54:22;2.38;;;1.40;;
635;SDS011;302;50.206;8.196;2023-12-28T12:56:47;2.20;;;1.33;;
635;SDS011;302;50.206;8.196;2023-12-28T12:59:12;3.80;;;1.17;;
635;SDS011;302;50.206;8.196;2023-12-28T13:01:44;2.88;;;1.30;;
635;SDS011;302;50.206;8.196;2023-12-28T13:04:09;2.97;;;1.20;;
635;SDS011;302;50.206;8.196;2023-12-28T13:06:35;2.00;;;1.13;;
635;SDS011;302;50.206;8.196;2023-12-28T13:09:00;6.22;;;1.95;;
635;SDS011;302;50.206;8.196;2023-12-28T13:11:25;3.60;;;1.67;;
635;SDS011;302;50.206;8.196;2023-12-28T13:13:51;1.60;;;1.37;;
635;SDS011;302;50.206;8.196;2023-12-28T13:16:16;2.13;;;1.93;;
635;SDS011;302;50.206;8.196;2023-12-28T13:18:41;2.88;;;1.55;;
635;SDS011;302;50.206;8.196;2023-12-28T13:21:07;2.23;;;1.70;;
635;SDS011;302;50.206;8.196;2023-12-28T13:23:32;2.20;;;1.60;;
635;SDS011;302;50.206;8.196;2023-12-28T13:25:57;5.67;;;1.60;;
635;SDS011;302;50.206;8.196;2023-12-28T13:28:22;2.78;;;2.30;;
635;SDS011;302;50.206;8.196;2023-12-28T13:30:47;4.05;;;2.10;;
635;SDS011;302;50.206;8.196;2023-12-28T13:33:15;2.42;;;2.05;;
635;SDS011;302;50.206;8.196;2023-12-28T13:35:40;3.27;;;1.90;;
635;SDS011;302;50.206;8.196;2023-12-28T13:38:06;2.55;;;2.20;;
635;SDS011;302;50.206;8.196;2023-12-28T13:40:31;3.42;;;1.90;;
635;SDS011;302;50.206;8.196;2023-12-28T13:42:56;3.53;;;2.27;;
635;SDS011;302;50.206;8.196;2023-12-28T13:45:21;3.53;;;2.10;;
635;SDS011;302;50.206;8.196;2023-12-28T13:47:46;4.93;;;2.25;;
635;SDS011;302;50.206;8.196;2023-12-28T13:50:11;2.57;;;2.10;;
635;SDS011;302;50.206;8.196;2023-12-28T13:52:36;3.07;;;2.50;;
635;SDS011;302;50.206;8.196;2023-12-28T13:55:02;5.17;;;2.70;;
635;SDS011;302;50.206;8.196;2023-12-28T13:57:27;2.43;;;2.10;;
635;SDS011;302;50.206;8.196;2023-12-28T13:59:52;2.73;;;2.40;;
635;SDS011;302;50.206;8.196;2023-12-28T14:02:17;3.70;;;2.37;;
635;SDS011;302;50.206;8.196;2023-12-28T14:04:42;2.63;;;2.43;;
635;SDS011;302;50.206;8.196;2023-12-28T14:07:08;4.47;;;3.53;;
635;SDS011;302;50.206;8.196;2023-12-28T14:09:33;3.88;;;2.20;;
635;SDS011;302;50.206;8.196;2023-12-28T14:12:00;2.42;;;2.15;;
635;SDS011;302;50.206;8.196;2023-12-28T14:14:26;4.10;;;2.87;;
635;SDS011;302;50.206;8.196;2023-12-28T14:16:52;3.10;;;2.80;;
635;SDS011;302;50.206;8.196;2023-12-28T14:19:17;3.15;;;2.85;;
635;SDS011;302;50.206;8.196;2023-12-28T14:21:42;3.10;;;2.80;;
635;SDS011;302;50.206;8.196;2023-12-28T14:24:08;3.10;;;2.80;;
635;SDS011;302;50.206;8.196;2023-12-28T14:26:34;3.20;;;2.92;;
635;SDS011;302;50.206;8.196;2023-12-28T14:28:59;3.73;;;3.00;;
635;SDS011;302;50.206;8.196;2023-12-28T14:31:28;4.97;;;3.40;;
635;SDS011;302;50.206;8.196;2023-12-28T14:33:53;3.40;;;3.10;;
635;SDS011;302;50.206;8.196;2023-12-28T14:36:37;4.38;;;3.25;;
635;SDS011;302;50.206;8.196;2023-12-28T14:39:06;3.88;;;3.22;;
635;SDS011;302;50.206;8.196;2023-12-28T14:41:35;3.55;;;3.25;;
635;SDS011;302;50.206;8.196;2023-12-28T14:44:00;3.67;;;2.70;;
635;SDS011;302;50.206;8.196;2023-12-28T14:46:26;14.13;;;11.03;;
635;SDS011;302;50.206;8.196;2023-12-28T14:48:52;8.27;;;7.57;;
635;SDS011;302;50.206;8.196;2023-12-28T14:51:17;3.30;;;2.90;;
635;SDS011;302;50.206;8.196;2023-12-28T14:53:42;3.43;;;3.23;;
635;SDS011;302;50.206;8.196;2023-12-28T14:56:07;3.77;;;3.03;;
635;SDS011;302;50.206;8.196;2023-12-28T14:58:33;2.43;;;2.20;;
635;SDS011;302;50.206;8.196;2023-12-28T15:00:58;2.15;;;1.95;;
635;SDS011;302;50.206;8.196;2023-12-28T15:03:23;2.93;;;2.63;;
635;SDS011;302;50.206;8.196;2023-12-28T15:05:48;2.10;;;2.00;;
635;SDS011;302;50.206;8.196;2023-12-28T15:08:13;3.13;;;2.08;;
635;SDS011;302;50.206;8.196;2023-12-28T15:10:39;2.57;;;2.00;;
635;SDS011;302;50.206;8.196;2023-12-28T15:13:04;2.50;;;2.10;;
635;SDS011;302;50.206;8.196;2023-12-28T15:15:29;1.87;;;1.73;;
635;SDS011;302;50.206;8.196;2023-12-28T15:17:55;2.83;;;2.03;;
635;SDS011;302;50.206;8.196;2023-12-28T15:20:21;2.10;;;1.90;;
635;SDS011;302;50.206;8.196;2023-12-28T15:22:46;3.63;;;1.77;;
635;SDS011;302;50.206;8.196;2023-12-28T15:25:12;4.80;;;2.30;;
635;SDS011;302;50.206;8.196;2023-12-28T15:27:37;2.60;;;1.50;;
635;SDS011;302;50.206;8.196;2023-12-28T15:30:03;1.47;;;1.10;;
635;SDS011;302;50.206;8.196;2023-12-28T15:32:28;1.70;;;1.60;;
635;SDS011;302;50.206;8.196;2023-12-28T15:34:53;2.28;;;1.60;;
635;SDS011;302;50.206;8.196;2023-12-28T15:37:18;2.13;;;1.65;;
635;SDS011;302;50.206;8.196;2023-12-28T15:39:43;2.47;;;1.20;;